createdAt,value
2024-03-26T02:43:31.205Z,992.19
2024-03-26T02:45:18.475Z,992.18
2024-03-26T02:45:49.405Z,992.18
2024-03-26T02:46:19.408Z,992.17
2024-03-26T02:46:49.394Z,992.15
2024-03-26T02:47:19.391Z,992.15
2024-03-26T02:47:49.395Z,992.15
2024-03-26T02:48:19.387Z,992.14
2024-03-26T02:48:49.370Z,992.14
2024-03-26T02:49:19.375Z,992.15
2024-03-26T02:49:49.405Z,992.15
2024-03-26T02:50:19.479Z,992.14
2024-03-26T02:50:49.454Z,992.14
2024-03-26T02:51:19.356Z,992.13
2024-03-26T02:51:49.351Z,992.13
2024-03-26T02:52:19.347Z,992.13
2024-03-26T02:52:49.346Z,992.12
2024-03-26T02:53:19.334Z,992.12
2024-03-26T02:53:49.363Z,992.11
2024-03-26T02:54:19.323Z,992.11
2024-03-26T02:54:49.377Z,992.10
2024-03-26T02:55:19.330Z,992.10
2024-03-26T02:55:49.309Z,992.10
2024-03-26T02:56:19.371Z,992.10
2024-03-26T02:56:49.374Z,992.10
2024-03-26T02:57:19.303Z,992.09
2024-03-26T02:57:49.281Z,992.08
2024-03-26T02:58:19.281Z,992.07
2024-03-26T02:58:49.273Z,992.07
2024-03-26T02:59:19.270Z,992.07
2024-03-26T02:59:49.294Z,992.06
2024-03-26T03:00:19.305Z,992.04
2024-03-26T03:00:49.256Z,992.03
2024-03-26T03:01:19.252Z,992.03
2024-03-26T03:01:49.243Z,992.04
2024-03-26T03:02:19.261Z,992.03
2024-03-26T03:02:49.289Z,992.02
2024-03-26T03:03:19.231Z,992.00
2024-03-26T03:03:49.221Z,992.00
2024-03-26T03:04:19.230Z,991.99
2024-03-26T03:04:49.211Z,991.98
2024-03-26T03:05:19.249Z,991.98
2024-03-26T03:05:49.219Z,991.98
2024-03-26T03:06:19.251Z,991.97
2024-03-26T03:06:49.185Z,991.95
2024-03-26T03:07:19.197Z,991.95
2024-03-26T03:07:49.191Z,991.94
2024-03-26T03:08:19.213Z,991.94
2024-03-26T03:08:49.226Z,991.94
2024-03-26T03:09:19.224Z,991.94
2024-03-26T07:45:45.564Z,989.41
2024-03-26T07:47:36.173Z,989.36
2024-03-26T07:48:07.105Z,989.35
2024-03-26T07:48:37.124Z,989.34
2024-03-26T07:49:07.085Z,989.32
2024-03-26T07:49:37.105Z,989.30
2024-03-26T07:50:07.312Z,989.30
2024-03-26T07:50:37.066Z,989.28
2024-03-26T07:51:07.455Z,989.27
2024-03-26T07:52:07.086Z,989.23
2024-03-26T07:52:37.177Z,989.22
2024-03-26T07:53:07.106Z,989.22
2024-03-26T07:53:37.105Z,989.22
2024-03-26T07:54:07.142Z,989.22
2024-03-26T07:54:37.068Z,989.20
2024-03-26T07:55:07.024Z,989.19
2024-03-26T07:55:37.021Z,989.18
2024-03-26T07:56:07.167Z,989.16
2024-03-26T07:56:37.061Z,989.14
2024-03-26T07:57:07.058Z,989.14
2024-03-26T07:57:37.022Z,989.13
2024-03-26T07:58:07.106Z,989.12
2024-03-26T07:58:37.009Z,989.11
2024-03-26T07:59:07.027Z,989.11
2024-03-26T07:59:36.981Z,989.09
2024-03-26T08:00:07.004Z,989.05
2024-03-26T08:00:36.992Z,989.04
2024-03-26T08:01:06.961Z,989.03
2024-03-26T08:01:37.018Z,989.02
2024-03-26T08:02:06.962Z,989.03
2024-03-26T08:02:36.953Z,989.02
2024-03-26T08:03:06.945Z,989.02
2024-03-26T08:03:37.007Z,989.01
2024-03-26T08:04:06.942Z,989.00
2024-03-26T08:04:38.613Z,989.00
2024-03-26T08:05:06.993Z,988.99
2024-03-26T08:05:36.944Z,988.98
2024-03-26T08:06:06.979Z,988.98
2024-03-26T08:06:36.957Z,988.98
2024-03-26T08:07:06.974Z,988.96
2024-03-26T08:07:36.893Z,988.97
2024-03-26T08:08:06.891Z,988.96
2024-03-26T08:08:36.911Z,988.95
2024-03-26T08:09:06.964Z,988.95
2024-03-26T08:09:36.871Z,988.95
2024-03-26T08:10:06.986Z,988.95
2024-03-26T08:10:36.881Z,988.96
2024-03-26T08:11:06.899Z,988.96
2024-03-26T08:11:36.900Z,988.95
2024-03-26T08:12:06.840Z,988.95
2024-03-26T08:12:36.838Z,988.95
2024-03-26T08:13:06.880Z,988.95
2024-03-26T08:13:36.842Z,988.93
2024-03-26T08:14:06.901Z,988.92
2024-03-26T08:14:36.816Z,988.92
2024-03-26T08:15:06.837Z,988.90
2024-03-26T08:15:36.812Z,988.90
2024-03-26T08:16:06.900Z,988.89
2024-03-26T08:16:36.867Z,988.89
2024-03-26T08:17:06.883Z,988.89
2024-03-26T08:17:36.784Z,988.90
2024-03-26T08:18:06.853Z,988.90
2024-03-26T08:18:36.781Z,988.90
2024-03-26T08:19:06.817Z,988.90
2024-03-26T08:19:36.768Z,988.90
2024-03-26T08:20:06.759Z,988.89
2024-03-26T08:20:36.766Z,988.90
2024-03-26T08:21:06.757Z,988.90
2024-03-26T08:21:36.752Z,988.90
2024-03-26T08:22:06.885Z,988.89
2024-03-26T08:22:36.776Z,988.89
2024-03-26T08:23:06.785Z,988.89
2024-03-26T08:23:36.723Z,988.88
2024-03-26T08:24:06.718Z,988.87
2024-03-26T08:24:36.713Z,988.86
2024-03-26T08:25:06.716Z,988.86
2024-03-26T08:25:36.698Z,988.85
2024-03-26T08:26:06.709Z,988.84
2024-03-26T08:26:36.690Z,988.83
2024-03-26T08:27:06.727Z,988.82
2024-03-26T08:27:36.721Z,988.81
2024-03-26T08:28:06.686Z,988.80
2024-03-26T08:28:36.694Z,988.80
2024-03-26T08:29:06.796Z,988.79
2024-03-26T08:29:36.657Z,988.79
2024-03-26T08:30:09.062Z,988.77
2024-03-26T08:30:36.650Z,988.77
2024-03-26T08:31:06.681Z,988.76
2024-03-26T08:31:36.634Z,988.76
2024-03-26T08:32:06.688Z,989.35
2024-03-26T08:32:36.642Z,989.22
2024-03-26T08:33:06.643Z,988.96
2024-03-26T08:33:36.616Z,988.74
2024-03-26T08:34:06.630Z,988.76
2024-03-26T08:34:36.668Z,988.74
2024-03-26T08:35:06.647Z,988.73
2024-03-26T08:35:36.598Z,988.72
2024-03-26T08:36:06.590Z,988.72
2024-03-26T08:36:36.670Z,988.71
2024-03-26T08:37:06.645Z,988.70
2024-03-26T08:37:36.616Z,988.71
2024-03-26T08:38:06.729Z,988.70
2024-03-26T08:38:36.563Z,988.68
2024-03-26T08:39:06.604Z,988.69
2024-03-26T08:39:36.552Z,988.68
2024-03-26T08:40:06.554Z,988.68
2024-03-26T08:40:36.582Z,988.69
2024-03-26T08:41:06.578Z,988.68
2024-03-26T08:41:36.535Z,988.68
2024-03-26T08:42:06.543Z,988.66
2024-03-26T08:42:36.569Z,988.64
2024-03-26T08:43:06.512Z,988.65
2024-03-26T08:43:36.501Z,988.63
2024-03-26T08:44:06.512Z,988.63
2024-03-26T08:44:36.498Z,988.62
2024-03-26T08:45:08.958Z,988.62
2024-03-26T08:45:36.483Z,988.61
2024-03-26T08:46:06.485Z,988.59
2024-03-26T08:46:36.495Z,988.59
2024-03-26T08:47:06.535Z,988.58
2024-03-26T08:47:36.511Z,988.57
2024-03-26T08:48:06.463Z,988.57
2024-03-26T08:48:36.453Z,988.57
2024-03-26T08:49:06.480Z,988.58
2024-03-26T08:49:36.442Z,988.57
2024-03-26T08:50:06.461Z,988.56
2024-03-26T08:50:36.427Z,988.56
2024-03-26T08:51:06.423Z,988.57
2024-03-26T08:51:36.441Z,988.57
2024-03-26T08:52:06.430Z,988.61
2024-03-26T08:52:36.467Z,988.57
2024-03-26T08:53:06.466Z,988.58
2024-03-26T08:53:36.478Z,988.57
2024-03-26T08:54:06.418Z,988.57
2024-03-26T08:54:36.381Z,988.57
2024-03-26T08:55:06.422Z,988.57
2024-03-26T08:55:36.377Z,988.57
2024-03-26T08:56:15.274Z,988.58
2024-03-26T08:56:36.375Z,988.58
2024-03-26T08:57:06.362Z,988.58
2024-03-26T08:57:36.438Z,988.58
2024-03-26T08:58:06.360Z,988.57
2024-03-26T08:58:36.407Z,988.57
2024-03-26T08:59:06.417Z,988.56
2024-03-26T08:59:36.340Z,988.53
2024-03-26T09:00:06.349Z,988.53
2024-03-26T09:00:36.334Z,988.52
2024-03-26T09:01:06.329Z,988.51
2024-03-26T09:01:36.316Z,988.51
2024-03-26T09:02:06.306Z,988.51
2024-03-26T09:02:36.304Z,988.51
2024-03-26T09:03:06.344Z,988.51
2024-03-26T09:03:36.340Z,988.51
2024-03-26T09:04:06.290Z,988.52
2024-03-26T09:04:36.296Z,988.51
2024-03-26T09:05:06.361Z,988.52
2024-03-26T09:05:36.277Z,988.51
2024-03-26T09:06:06.266Z,988.51
2024-03-26T09:06:36.279Z,988.50
2024-03-26T09:07:06.257Z,988.51
2024-03-26T09:07:36.289Z,988.51
2024-03-26T09:08:06.295Z,988.50
2024-03-26T09:08:36.236Z,988.51
2024-03-26T09:09:06.237Z,988.49
2024-03-26T09:09:36.235Z,988.49
2024-03-26T09:10:06.227Z,988.48
2024-03-26T09:10:36.252Z,988.48
2024-03-26T09:11:06.303Z,988.47
2024-03-26T09:11:36.224Z,988.47
2024-03-26T09:12:06.221Z,988.46
2024-03-26T09:12:36.738Z,988.46
2024-03-26T09:13:06.243Z,988.45
2024-03-26T09:13:36.192Z,988.45
2024-03-26T09:14:06.215Z,988.45
2024-03-26T09:14:36.188Z,988.44
2024-03-26T09:15:06.174Z,988.43
2024-03-26T09:15:36.163Z,988.42
2024-03-26T09:16:06.170Z,988.41
2024-03-26T09:16:36.179Z,988.40
2024-03-26T09:17:06.213Z,988.39
2024-03-26T09:17:36.145Z,988.37
2024-03-26T09:18:06.220Z,988.36
2024-03-26T09:18:36.129Z,988.35
2024-03-26T09:19:06.181Z,988.34
2024-03-26T09:19:36.120Z,988.33
2024-03-26T09:20:06.131Z,988.32
2024-03-26T09:20:36.113Z,988.30
2024-03-26T09:21:06.116Z,988.30
2024-03-26T09:21:36.110Z,988.28
2024-03-26T09:22:06.112Z,988.27
2024-03-26T09:22:36.097Z,988.25
2024-03-26T09:23:06.175Z,988.24
2024-03-26T09:23:36.081Z,988.24
2024-03-26T09:24:07.424Z,988.23
2024-03-26T09:24:43.185Z,988.20
2024-03-26T09:25:06.078Z,988.19
2024-03-26T09:25:36.060Z,988.17
2024-03-26T09:26:06.057Z,988.16
2024-03-26T09:26:36.052Z,988.16
2024-03-26T09:27:06.047Z,988.16
2024-03-26T09:27:36.036Z,988.16
2024-03-26T09:28:06.039Z,988.15
2024-03-26T09:28:36.085Z,988.14
2024-03-26T09:29:06.086Z,988.15
2024-03-26T09:29:36.009Z,988.12
2024-03-26T09:30:06.045Z,988.11
2024-03-26T09:30:36.014Z,988.09
2024-03-26T09:31:07.589Z,988.09
2024-03-26T09:31:35.999Z,988.07
2024-03-26T09:32:05.994Z,988.06
2024-03-26T09:32:35.989Z,988.05
2024-03-26T09:33:05.984Z,988.02
2024-03-26T09:33:36.008Z,988.01
2024-03-26T09:34:05.975Z,987.99
2024-03-26T09:34:35.983Z,987.97
2024-03-26T09:35:06.012Z,987.98
2024-03-26T09:35:35.951Z,987.98
2024-03-26T09:36:05.959Z,987.95
2024-03-26T09:36:37.783Z,987.96
2024-03-26T09:37:05.955Z,987.95
2024-03-26T09:37:35.936Z,987.95
2024-03-26T09:38:05.960Z,987.94
2024-03-26T09:38:43.796Z,987.94
2024-03-26T09:39:08.379Z,987.94
2024-03-26T09:39:35.915Z,987.93
2024-03-26T09:40:06.188Z,987.93
2024-03-26T09:40:35.915Z,987.93
2024-03-26T09:41:06.055Z,987.93
2024-03-26T09:41:35.887Z,987.91
2024-03-26T09:42:05.880Z,987.90
2024-03-26T09:42:35.876Z,987.89
2024-03-26T09:43:05.897Z,987.89
2024-03-26T09:43:35.908Z,987.87
2024-03-26T09:44:05.907Z,987.85
2024-03-26T09:44:35.854Z,987.85
2024-03-26T09:45:06.980Z,987.84
2024-03-26T09:45:35.886Z,987.83
2024-03-26T09:46:05.850Z,987.82
2024-03-26T09:46:35.866Z,987.81
2024-03-26T09:47:05.879Z,987.81
2024-03-26T09:47:35.823Z,987.80
2024-03-26T09:48:05.826Z,987.79
2024-03-26T09:48:35.824Z,987.78
2024-03-26T09:49:05.850Z,987.77
2024-03-26T09:49:35.796Z,987.76
2024-03-26T09:50:05.795Z,987.75
2024-03-26T09:50:35.787Z,987.73
2024-03-26T09:51:05.797Z,987.71
2024-03-26T09:51:35.787Z,987.71
2024-03-26T09:52:05.776Z,987.71
2024-03-26T09:52:35.799Z,987.72
2024-03-26T09:53:05.835Z,987.71
2024-03-26T09:53:35.761Z,987.70
2024-03-26T09:54:05.796Z,987.69
2024-03-26T09:54:35.753Z,987.70
2024-03-26T09:55:05.762Z,987.67
2024-03-26T09:55:35.758Z,987.69
2024-03-26T09:56:05.742Z,987.68
2024-03-26T09:56:35.730Z,987.66
2024-03-26T09:57:05.725Z,987.66
2024-03-26T09:57:35.726Z,987.63
2024-03-26T09:58:05.716Z,987.65
2024-03-26T09:58:35.749Z,987.67
2024-03-26T09:59:05.797Z,987.64
2024-03-26T09:59:35.698Z,987.64
2024-03-26T10:00:05.713Z,987.62
2024-03-26T10:00:35.688Z,987.63
2024-03-26T10:01:05.683Z,987.63
2024-03-26T10:01:35.689Z,987.62
2024-03-26T10:02:05.664Z,987.63
2024-03-26T10:02:35.663Z,987.60
2024-03-26T10:03:05.725Z,987.61
2024-03-26T10:03:35.687Z,987.61
2024-03-26T10:04:05.654Z,987.62
2024-03-26T10:04:35.709Z,987.62
2024-03-26T10:05:05.682Z,987.62
2024-03-26T10:05:35.630Z,987.64
2024-03-26T10:06:05.639Z,987.65
2024-03-26T10:06:35.625Z,987.64
2024-03-26T10:07:05.626Z,987.64
2024-03-26T10:07:35.617Z,987.63
2024-03-26T10:08:05.611Z,987.62
2024-03-26T10:08:35.682Z,987.60
2024-03-26T10:09:05.676Z,987.59
2024-03-26T10:09:35.585Z,987.58
2024-03-26T10:10:05.587Z,987.56
2024-03-26T10:10:35.610Z,987.56
2024-03-26T10:11:05.627Z,987.55
2024-03-26T10:11:35.604Z,987.56
2024-03-26T10:12:05.620Z,987.55
2024-03-26T10:12:35.560Z,987.55
2024-03-26T10:13:05.558Z,987.53
2024-03-26T10:13:35.562Z,987.54
2024-03-26T10:14:05.551Z,987.52
2024-03-26T10:14:35.582Z,987.51
2024-03-26T10:15:05.582Z,987.54
2024-03-26T10:15:35.547Z,987.54
2024-03-26T10:16:05.528Z,987.51
2024-03-26T10:16:35.534Z,987.52
2024-03-26T10:17:05.554Z,987.51
2024-03-26T10:17:35.514Z,987.50
2024-03-26T10:18:05.509Z,987.50
2024-03-26T10:18:35.491Z,987.49
2024-03-26T10:19:05.502Z,987.49
2024-03-26T10:19:35.524Z,987.49
2024-03-26T10:20:05.482Z,987.50
2024-03-26T10:20:35.475Z,987.49
2024-03-26T10:21:05.468Z,987.48
2024-03-26T10:21:35.462Z,987.47
2024-03-26T10:22:05.464Z,987.45
2024-03-26T10:22:35.496Z,987.44
2024-03-26T10:23:05.490Z,987.44
2024-03-26T10:23:35.471Z,987.45
2024-03-26T10:24:05.448Z,987.44
2024-03-26T10:24:35.473Z,987.44
2024-03-26T10:25:05.433Z,987.41
2024-03-26T10:25:35.425Z,987.40
2024-03-26T10:26:05.421Z,987.38
2024-03-26T10:26:35.425Z,987.38
2024-03-26T10:27:05.413Z,987.39
2024-03-26T10:27:35.398Z,987.36
2024-03-26T10:28:05.391Z,987.35
2024-03-26T10:28:35.417Z,987.36
2024-03-26T10:29:05.440Z,987.36
2024-03-26T10:29:35.380Z,987.36
2024-03-26T10:30:05.493Z,987.35
2024-03-26T10:30:35.372Z,987.36
2024-03-26T10:31:05.368Z,987.37
2024-03-26T10:31:35.367Z,987.35
2024-03-26T10:32:05.360Z,987.34
2024-03-26T10:32:35.353Z,987.33
2024-03-26T10:33:05.385Z,987.33
2024-03-26T10:33:35.345Z,987.32
2024-03-26T10:34:05.327Z,987.32
2024-03-26T10:34:35.366Z,987.33
2024-03-26T10:35:05.441Z,987.32
2024-03-26T10:35:35.320Z,987.30
2024-03-26T10:36:05.331Z,987.29
2024-03-26T10:36:35.308Z,987.29
2024-03-26T10:37:05.301Z,987.28
2024-03-26T10:37:35.344Z,987.26
2024-03-26T10:38:13.081Z,987.26
2024-03-26T10:38:35.292Z,987.25
2024-03-26T10:39:05.308Z,987.24
2024-03-26T10:39:35.286Z,987.23
2024-03-26T10:40:05.323Z,987.23
2024-03-26T10:40:35.298Z,987.21
2024-03-26T10:41:05.300Z,987.22
2024-03-26T10:41:35.266Z,987.23
2024-03-26T10:42:05.260Z,987.22
2024-03-26T10:42:35.247Z,987.24
2024-03-26T10:43:05.243Z,987.23
2024-03-26T10:43:35.249Z,987.20
2024-03-26T10:44:05.594Z,987.20
2024-03-26T10:44:35.235Z,987.20
2024-03-26T10:45:05.301Z,987.20
2024-03-26T10:45:48.962Z,987.17
2024-03-26T10:46:35.230Z,987.17
2024-03-26T10:47:05.239Z,987.17
2024-03-26T10:47:35.188Z,987.16
2024-03-26T10:48:05.242Z,987.14
2024-03-26T10:48:39.572Z,987.13
2024-03-26T10:49:05.178Z,987.12
2024-03-26T10:49:35.192Z,987.10
2024-03-26T10:50:05.235Z,987.07
2024-03-26T10:50:35.170Z,987.07
2024-03-26T10:51:05.167Z,987.06
2024-03-26T10:51:35.149Z,987.06
2024-03-26T10:52:05.145Z,987.03
2024-03-26T10:52:35.172Z,987.02
2024-03-26T10:53:05.169Z,986.99
2024-03-26T10:53:35.133Z,986.98
2024-03-26T10:54:05.155Z,986.98
2024-03-26T10:54:35.148Z,986.98
2024-03-26T10:55:05.113Z,986.97
2024-03-26T10:55:35.157Z,986.94
2024-03-26T10:56:05.091Z,986.95
2024-03-26T10:56:35.111Z,986.94
2024-03-26T10:57:05.180Z,986.93
2024-03-26T10:57:35.100Z,986.91
2024-03-26T10:58:05.079Z,986.90
2024-03-26T10:58:35.099Z,986.85
2024-03-26T10:59:05.150Z,986.88
2024-03-26T10:59:35.065Z,986.89
2024-03-26T11:00:06.472Z,986.89
2024-03-26T11:00:35.105Z,986.90
2024-03-26T11:01:05.091Z,986.90
2024-03-26T11:01:35.047Z,986.90
2024-03-26T11:02:05.038Z,986.88
2024-03-26T11:02:35.035Z,986.89
2024-03-26T11:03:05.061Z,986.88
2024-03-26T11:03:35.029Z,986.87
2024-03-26T11:04:05.015Z,986.87
2024-03-26T11:04:35.051Z,986.87
2024-03-26T11:05:05.073Z,986.86
2024-03-26T11:05:35.010Z,986.87
2024-03-26T11:06:05.047Z,986.87
2024-03-26T11:06:35.006Z,986.86
2024-03-26T11:07:05.010Z,986.86
2024-03-26T11:07:34.983Z,986.86
2024-03-26T11:08:06.904Z,986.86
2024-03-26T11:08:34.978Z,986.85
2024-03-26T11:09:05.018Z,986.85
2024-03-26T11:09:34.956Z,986.84
2024-03-26T11:10:04.944Z,986.84
2024-03-26T11:10:35.018Z,986.84
2024-03-26T11:11:04.981Z,986.84
2024-03-26T11:11:34.958Z,986.85
2024-03-26T11:12:04.968Z,986.87
2024-03-26T11:12:34.931Z,986.85
2024-03-26T11:13:04.920Z,986.88
2024-03-26T11:13:34.937Z,986.84
2024-03-26T11:14:04.910Z,986.85
2024-03-26T11:14:34.906Z,986.85
2024-03-26T11:15:04.925Z,986.86
2024-03-26T11:15:34.942Z,986.86
2024-03-26T11:16:07.301Z,986.86
2024-03-26T11:16:34.915Z,986.86
2024-03-26T11:17:04.919Z,986.85
2024-03-26T11:17:34.885Z,986.85
2024-03-26T11:18:04.934Z,986.85
2024-03-26T11:18:34.906Z,986.85
2024-03-26T11:19:04.861Z,986.84
2024-03-26T11:19:34.864Z,986.83
2024-03-26T11:20:04.850Z,986.82
2024-03-26T11:20:34.906Z,986.84
2024-03-26T11:21:04.955Z,986.82
2024-03-26T11:21:34.835Z,986.83
2024-03-26T11:22:04.823Z,986.82
2024-03-26T11:22:34.843Z,986.81
2024-03-26T11:23:04.865Z,986.79
2024-03-26T11:23:34.806Z,986.80
2024-03-26T11:24:04.838Z,986.81
2024-03-26T11:24:34.797Z,986.80
2024-03-26T11:25:04.799Z,986.79
2024-03-26T11:25:34.807Z,986.80
2024-03-26T11:26:04.834Z,986.79
2024-03-26T11:26:34.775Z,986.78
2024-03-26T11:27:07.938Z,986.77
2024-03-26T11:27:34.795Z,986.74
2024-03-26T11:28:04.778Z,986.74
2024-03-26T11:28:34.798Z,986.75
2024-03-26T11:29:04.855Z,986.74
2024-03-26T11:29:34.758Z,986.71
2024-03-26T11:30:04.772Z,986.68
2024-03-26T11:30:34.746Z,986.67
2024-03-26T11:31:04.738Z,986.67
2024-03-26T11:31:34.778Z,986.67
2024-03-26T11:32:04.735Z,986.65
2024-03-26T11:32:34.719Z,986.65
2024-03-26T11:33:04.867Z,986.65
2024-03-26T11:33:34.823Z,986.65
2024-03-26T11:34:04.703Z,986.66
2024-03-26T11:34:34.717Z,986.65
2024-03-26T11:35:04.738Z,986.65
2024-03-26T11:35:34.687Z,986.66
2024-03-26T11:36:04.730Z,986.61
2024-03-26T11:36:34.744Z,986.60
2024-03-26T11:37:04.662Z,986.59
2024-03-26T11:37:34.659Z,986.58
2024-03-26T11:38:04.678Z,986.57
2024-03-26T11:38:34.653Z,986.56
2024-03-26T11:39:04.676Z,986.55
2024-03-26T11:39:34.652Z,986.55
2024-03-26T11:40:04.644Z,986.54
2024-03-26T11:40:34.652Z,986.55
2024-03-26T11:41:07.913Z,986.55
2024-03-26T11:41:34.666Z,986.55
2024-03-26T11:42:04.691Z,986.55
2024-03-26T11:42:34.612Z,986.53
2024-03-26T11:43:04.620Z,986.53
2024-03-26T11:43:34.613Z,986.53
2024-03-26T11:44:04.626Z,986.54
2024-03-26T11:44:34.637Z,986.52
2024-03-26T11:45:04.666Z,986.51
2024-03-26T11:45:34.576Z,986.51
2024-03-26T11:46:04.592Z,986.50
2024-03-26T11:46:35.468Z,986.49
2024-03-26T11:47:04.617Z,986.49
2024-03-26T11:47:34.566Z,986.49
2024-03-26T11:48:04.591Z,986.49
2024-03-26T11:48:34.546Z,986.48
2024-03-26T11:49:04.561Z,986.48
2024-03-26T11:49:34.547Z,986.47
2024-03-26T11:50:04.537Z,986.47
2024-03-26T11:50:34.550Z,986.45
2024-03-26T11:51:04.538Z,986.45
2024-03-26T11:51:34.520Z,986.45
2024-03-26T11:52:04.550Z,986.45
2024-03-26T11:52:34.533Z,986.44
2024-03-26T11:53:04.540Z,986.43
2024-03-26T11:53:34.492Z,986.42
2024-03-26T11:54:04.612Z,986.42
2024-03-26T11:54:34.486Z,986.41
2024-03-26T11:55:04.524Z,986.39
2024-03-26T11:55:34.468Z,986.39
2024-03-26T11:56:04.463Z,986.39
2024-03-26T11:56:34.466Z,986.38
2024-03-26T11:57:04.498Z,986.39
2024-03-26T11:57:34.802Z,986.38
2024-03-26T11:58:04.446Z,986.38
2024-03-26T11:58:34.467Z,986.38
2024-03-26T11:59:04.510Z,986.38
2024-03-26T11:59:34.445Z,986.37
2024-03-26T12:01:38.976Z,986.36
2024-03-26T12:02:10.574Z,986.36
2024-03-26T12:02:39.967Z,986.38
2024-03-26T12:03:10.234Z,986.37
2024-03-26T12:03:39.922Z,986.35
2024-03-26T12:04:09.920Z,986.35
2024-03-26T12:04:39.890Z,986.35
2024-03-26T12:05:09.898Z,986.35
2024-03-26T12:05:39.885Z,986.35
2024-03-26T12:06:09.998Z,986.34
2024-03-26T12:06:39.974Z,986.33
2024-03-26T12:07:09.875Z,986.33
2024-03-26T12:07:39.924Z,986.33
2024-03-26T12:08:09.867Z,986.32
2024-03-26T12:08:39.851Z,986.33
2024-03-26T12:09:09.852Z,986.33
2024-03-26T12:09:42.412Z,986.33
2024-03-26T12:10:09.841Z,986.34
2024-03-26T12:10:39.836Z,986.33
2024-03-26T12:11:09.832Z,986.34
2024-03-26T12:11:39.842Z,986.34
2024-03-26T12:12:09.851Z,986.34
2024-03-26T12:12:39.895Z,986.33
2024-03-26T12:13:09.814Z,986.34
2024-03-26T12:13:39.809Z,986.35
2024-03-26T12:14:09.806Z,986.33
2024-03-26T12:14:39.790Z,986.32
2024-03-26T12:15:09.783Z,986.32
2024-03-26T12:15:39.828Z,986.30
2024-03-26T12:16:09.791Z,986.29
2024-03-26T12:16:39.784Z,986.28
2024-03-26T12:17:09.777Z,986.29
2024-03-26T12:17:39.808Z,986.29
2024-03-26T12:18:09.778Z,986.27
2024-03-26T12:18:39.796Z,986.24
2024-03-26T12:19:09.749Z,986.23
2024-03-26T12:19:39.743Z,986.23
2024-03-26T12:20:09.743Z,986.21
2024-03-26T12:20:39.770Z,986.19
2024-03-26T12:21:09.775Z,986.19
2024-03-26T12:21:39.718Z,986.18
2024-03-26T12:22:09.724Z,986.17
2024-03-26T12:22:39.753Z,986.16
2024-03-26T12:23:09.714Z,986.16
2024-03-26T12:23:39.727Z,986.15
2024-03-26T12:24:09.722Z,986.14
2024-03-26T12:24:39.729Z,986.15
2024-03-26T12:25:09.695Z,986.14
2024-03-26T12:25:39.707Z,986.15
2024-03-26T12:26:09.689Z,986.15
2024-03-26T12:26:39.688Z,986.15
2024-03-26T12:27:09.676Z,986.15
2024-03-26T12:27:41.460Z,986.13
2024-03-26T12:28:09.725Z,986.12
2024-03-26T12:28:39.660Z,986.13
2024-03-26T12:29:09.654Z,986.11
2024-03-26T12:29:39.636Z,986.10
2024-03-26T12:30:09.684Z,986.11
2024-03-26T12:30:39.671Z,986.11
2024-03-26T12:31:09.671Z,986.08
2024-03-26T12:31:39.650Z,986.09
2024-03-26T12:32:09.618Z,986.09
2024-03-26T12:32:39.608Z,986.09
2024-03-26T12:33:09.683Z,986.07
2024-03-26T12:33:39.619Z,986.07
2024-03-26T12:34:09.593Z,986.06
2024-03-26T12:34:39.596Z,986.05
2024-03-26T12:35:09.580Z,986.04
2024-03-26T12:35:39.575Z,986.04
2024-03-26T12:36:09.656Z,986.03
2024-03-26T12:36:39.606Z,986.04
2024-03-26T12:37:09.557Z,986.06
2024-03-26T12:37:39.561Z,986.07
2024-03-26T12:38:09.599Z,986.05
2024-03-26T12:38:39.546Z,985.99
2024-03-26T12:39:09.556Z,985.98
2024-03-26T12:39:39.544Z,985.97
2024-03-26T12:40:09.524Z,985.96
2024-03-26T12:40:39.520Z,985.94
2024-03-26T12:41:09.564Z,985.94
2024-03-26T12:41:39.511Z,985.92
2024-03-26T12:42:09.551Z,985.92
2024-03-26T12:42:39.548Z,985.91
2024-03-26T12:43:09.498Z,985.91
2024-03-26T12:43:39.492Z,985.89
2024-03-26T12:44:09.493Z,985.89
2024-03-26T12:44:39.485Z,985.90
2024-03-26T12:45:09.514Z,985.88
2024-03-26T12:45:39.471Z,985.87
2024-03-26T12:46:09.517Z,985.87
2024-03-26T12:46:39.468Z,985.86
2024-03-26T12:47:09.457Z,985.86
2024-03-26T12:47:39.455Z,985.86
2024-03-26T12:48:09.498Z,985.84
2024-03-26T12:48:39.488Z,985.82
2024-03-26T12:49:09.433Z,985.82
2024-03-26T12:49:39.433Z,985.82
2024-03-26T12:50:09.425Z,985.81
2024-03-26T12:50:39.419Z,985.80
2024-03-26T12:51:09.505Z,985.79
2024-03-26T12:51:39.414Z,985.78
2024-03-26T12:52:09.403Z,985.78
2024-03-26T12:52:39.402Z,985.77
2024-03-26T12:53:09.390Z,985.75
2024-03-26T12:53:39.426Z,985.74
2024-03-26T12:54:09.405Z,985.74
2024-03-26T12:54:39.413Z,985.73
2024-03-26T12:55:09.376Z,985.72
2024-03-26T12:55:39.359Z,985.72
2024-03-26T12:56:09.362Z,985.72
2024-03-26T12:56:39.404Z,985.70
2024-03-26T12:57:09.376Z,985.70
2024-03-26T12:57:39.350Z,985.69
2024-03-26T12:58:09.343Z,985.68
2024-03-26T12:58:39.341Z,985.67
2024-03-26T12:59:09.385Z,985.67
2024-03-26T12:59:39.337Z,985.66
2024-03-26T13:00:09.398Z,985.67
2024-03-26T13:00:39.344Z,985.66
2024-03-26T13:01:09.306Z,985.64
2024-03-26T13:01:39.302Z,985.64
2024-03-26T13:02:09.295Z,985.62
2024-03-26T13:02:39.298Z,985.63
2024-03-26T13:03:09.300Z,985.65
2024-03-26T13:03:39.294Z,985.64
2024-03-26T13:04:09.284Z,985.62
2024-03-26T13:04:39.324Z,985.62
2024-03-26T13:05:09.260Z,985.62
2024-03-26T13:05:39.270Z,985.61
2024-03-26T13:06:09.322Z,985.59
2024-03-26T13:06:39.286Z,985.58
2024-03-26T13:07:09.242Z,985.56
2024-03-26T13:07:39.231Z,985.58
2024-03-26T13:08:09.258Z,985.56
2024-03-26T13:08:39.228Z,985.55
2024-03-26T13:09:09.278Z,985.55
2024-03-26T13:09:39.259Z,985.56
2024-03-26T13:10:09.222Z,985.54
2024-03-26T13:10:39.213Z,985.52
2024-03-26T13:11:09.197Z,985.51
2024-03-26T13:11:39.193Z,985.50
2024-03-26T13:12:09.220Z,985.49
2024-03-26T13:12:39.238Z,985.50
2024-03-26T13:13:09.174Z,985.47
2024-03-26T13:13:39.175Z,985.48
2024-03-26T13:14:09.173Z,985.49
2024-03-26T13:14:39.203Z,985.47
2024-03-26T13:15:09.165Z,985.47
2024-03-26T13:15:39.156Z,985.46
2024-03-26T13:16:09.157Z,985.43
2024-03-26T13:16:39.142Z,985.41
2024-03-26T13:17:09.183Z,985.39
2024-03-26T13:17:39.129Z,985.39
2024-03-26T13:18:09.168Z,985.37
2024-03-26T13:18:39.933Z,985.36
2024-03-26T13:19:09.114Z,985.36
2024-03-26T13:19:39.118Z,985.35
2024-03-26T13:20:09.107Z,985.34
2024-03-26T13:20:39.117Z,985.35
2024-03-26T13:21:09.102Z,985.35
2024-03-26T13:21:39.089Z,985.35
2024-03-26T13:22:09.133Z,985.35
2024-03-26T13:22:39.085Z,985.35
2024-03-26T13:23:09.081Z,985.36
2024-03-26T13:23:39.068Z,985.36
2024-03-26T13:24:09.105Z,985.37
2024-03-26T13:24:39.099Z,985.35
2024-03-26T13:25:09.047Z,985.35
2024-03-26T13:25:39.048Z,985.34
2024-03-26T13:26:09.038Z,985.34
2024-03-26T13:26:39.034Z,985.32
2024-03-26T13:27:09.051Z,985.33
2024-03-26T13:27:39.082Z,985.33
2024-03-26T13:28:09.022Z,985.33
2024-03-26T13:28:39.015Z,985.34
2024-03-26T13:29:09.015Z,985.33
2024-03-26T13:29:39.013Z,985.32
2024-03-26T13:30:09.053Z,985.31
2024-03-26T13:30:45.387Z,985.29
2024-03-26T13:31:08.993Z,985.28
2024-03-26T13:31:38.984Z,985.28
2024-03-26T13:32:08.984Z,985.26
2024-03-26T13:32:38.977Z,985.24
2024-03-26T13:33:09.014Z,985.23
2024-03-26T13:33:39.009Z,985.23
2024-03-26T13:34:08.964Z,985.21
2024-03-26T13:34:38.939Z,985.20
2024-03-26T13:35:08.948Z,985.19
2024-03-26T13:35:38.992Z,985.19
2024-03-26T13:36:08.980Z,985.19
2024-03-26T13:36:38.969Z,985.18
2024-03-26T13:37:08.935Z,985.17
2024-03-26T13:37:39.011Z,985.16
2024-03-26T13:38:08.922Z,985.15
2024-03-26T13:38:41.130Z,985.15